Time;durP1;ratioP1;P1;durP2;ratioP2;P2;SDS_P1;SDS_P2;PMS_P1;PMS_P2;Temp;Humidity;BMP_temperature;BMP_pressure;BME280_temperature;BME280_humidity;BME280_pressure;Samples;Min_cycle;Max_cycle;Signal;HPM_P1;HPM_P2
2022/05/16 00:00:10;;;;;;;15.27;6.32;;;;;;;;;;5011162;28;20054;-64
2022/05/16 00:02:36;;;;;;;13.68;5.30;;;;;;;;;;5006056;28;20120;-63
2022/05/16 00:05:02;;;;;;;22.92;6.95;;;;;;;;;;5013876;28;20041;-64
2022/05/16 00:07:28;;;;;;;13.55;6.13;;;;;;;;;;5014757;28;20111;-64
2022/05/16 00:09:55;;;;;;;11.48;5.90;;;;;;;;;;5015646;28;20054;-64
2022/05/16 00:12:21;;;;;;;16.08;5.65;;;;;;;;;;5011723;28;20149;-64
2022/05/16 00:14:47;;;;;;;11.73;6.07;;;;;;;;;;5011166;28;21746;-64
2022/05/16 00:17:14;;;;;;;14.32;5.90;;;;;;;;;;5011252;28;20209;-64
2022/05/16 00:19:41;;;;;;;14.02;5.80;;;;;;;;;;5011231;28;20849;-63
2022/05/16 00:22:07;;;;;;;15.50;6.07;;;;;;;;;;5008519;28;20066;-64
2022/05/16 00:24:34;;;;;;;12.93;6.30;;;;;;;;;;5012054;28;20042;-64
2022/05/16 00:27:00;;;;;;;15.18;6.20;;;;;;;;;;5009607;28;20097;-64
2022/05/16 00:29:26;;;;;;;14.30;6.05;;;;;;;;;;5000903;28;20397;-64
2022/05/16 00:31:54;;;;;;;13.80;6.03;;;;;;;;;;5015727;28;20136;-64
2022/05/16 00:34:20;;;;;;;16.75;7.00;;;;;;;;;;4999116;28;20059;-64
2022/05/16 00:36:47;;;;;;;14.40;6.43;;;;;;;;;;5015774;28;20056;-64
2022/05/16 00:39:15;;;;;;;15.50;6.25;;;;;;;;;;5014210;28;20041;-64
2022/05/16 00:41:42;;;;;;;13.18;5.72;;;;;;;;;;5015329;28;20068;-63
2022/05/16 00:44:08;;;;;;;15.38;6.05;;;;;;;;;;5017991;28;20220;-64
2022/05/16 00:46:34;;;;;;;15.73;6.50;;;;;;;;;;5016184;28;20140;-64
2022/05/16 00:49:03;;;;;;;15.90;5.43;;;;;;;;;;4997162;28;20049;-64
2022/05/16 00:51:32;;;;;;;15.10;6.68;;;;;;;;;;5023070;28;20049;-64
2022/05/16 00:54:02;;;;;;;17.50;6.45;;;;;;;;;;5012335;28;20046;-64
2022/05/16 00:56:28;;;;;;;17.60;6.90;;;;;;;;;;5020473;28;20489;-64
2022/05/16 00:58:55;;;;;;;15.13;6.45;;;;;;;;;;5015196;28;20065;-64
2022/05/16 01:06:55;;;;;;;11.00;5.70;;;;;;;;;;5011022;28;20564;-63
2022/05/16 01:09:21;;;;;;;14.77;6.40;;;;;;;;;;5011981;28;20050;-64
2022/05/16 01:11:47;;;;;;;11.30;6.15;;;;;;;;;;5011390;28;20042;-64
2022/05/16 01:14:32;;;;;;;13.48;5.85;;;;;;;;;;5011317;28;20127;-64
2022/05/16 01:16:59;;;;;;;13.10;5.78;;;;;;;;;;5018234;28;20053;-64
2022/05/16 01:19:25;;;;;;;12.48;5.75;;;;;;;;;;5018261;28;20185;-64
2022/05/16 01:21:51;;;;;;;15.77;6.13;;;;;;;;;;5016307;28;20057;-64
2022/05/16 01:24:18;;;;;;;13.20;6.30;;;;;;;;;;5019201;28;20052;-63
2022/05/16 01:26:44;;;;;;;11.55;5.60;;;;;;;;;;5014925;28;20125;-64
2022/05/16 01:29:10;;;;;;;13.82;5.88;;;;;;;;;;5011162;28;20053;-64
2022/05/16 01:31:37;;;;;;;14.25;6.20;;;;;;;;;;5017551;28;21712;-64
2022/05/16 01:34:04;;;;;;;18.15;7.40;;;;;;;;;;5016389;28;20151;-64
2022/05/16 01:36:30;;;;;;;12.75;6.10;;;;;;;;;;4993974;28;20573;-64
2022/05/16 01:38:56;;;;;;;11.25;6.13;;;;;;;;;;5019422;28;20366;-64
2022/05/16 01:41:24;;;;;;;17.73;6.20;;;;;;;;;;5016183;28;20129;-64
2022/05/16 01:43:51;;;;;;;14.13;5.97;;;;;;;;;;5016804;28;20064;-64
2022/05/16 01:46:20;;;;;;;12.27;5.80;;;;;;;;;;5012862;28;20038;-63
2022/05/16 01:48:47;;;;;;;11.45;5.78;;;;;;;;;;5012216;28;20033;-64
2022/05/16 01:51:13;;;;;;;12.52;5.90;;;;;;;;;;5011790;28;20096;-64
2022/05/16 01:53:40;;;;;;;11.25;5.57;;;;;;;;;;5009883;28;20045;-64
2022/05/16 01:56:07;;;;;;;12.18;5.70;;;;;;;;;;5010940;28;20049;-64
2022/05/16 01:58:33;;;;;;;12.98;5.50;;;;;;;;;;5012484;28;20204;-64
2022/05/16 02:00:59;;;;;;;12.32;5.43;;;;;;;;;;5014770;28;20512;-64
2022/05/16 02:03:25;;;;;;;13.38;6.47;;;;;;;;;;5014629;28;20044;-63
2022/05/16 02:05:52;;;;;;;14.70;6.10;;;;;;;;;;4998688;28;20045;-64
2022/05/16 02:08:18;;;;;;;14.25;6.53;;;;;;;;;;5011464;28;20041;-64
2022/05/16 02:10:45;;;;;;;10.50;5.47;;;;;;;;;;4997069;28;20052;-63
2022/05/16 02:13:11;;;;;;;14.20;5.75;;;;;;;;;;5010663;28;20137;-63
2022/05/16 02:15:38;;;;;;;12.18;5.68;;;;;;;;;;5015870;28;20055;-64
2022/05/16 02:18:06;;;;;;;17.65;5.90;;;;;;;;;;5017590;28;20121;-64
2022/05/16 02:20:32;;;;;;;14.05;5.60;;;;;;;;;;5018485;28;20448;-64
2022/05/16 02:25:45;;;;;;;8.60;4.80;;;;;;;;;;5009914;28;20046;-63
2022/05/16 02:28:14;;;;;;;10.43;5.50;;;;;;;;;;5015358;28;20045;-64
2022/05/16 02:30:41;;;;;;;11.02;5.25;;;;;;;;;;5009207;28;20060;-63
2022/05/16 02:33:08;;;;;;;17.15;5.47;;;;;;;;;;5007985;28;20076;-64
2022/05/16 02:35:34;;;;;;;14.75;5.90;;;;;;;;;;5008191;28;20488;-64
2022/05/16 02:38:01;;;;;;;13.07;4.85;;;;;;;;;;5013028;28;20127;-64
2022/05/16 02:40:28;;;;;;;13.15;4.68;;;;;;;;;;5012649;28;20461;-64
2022/05/16 02:42:54;;;;;;;9.82;4.85;;;;;;;;;;5011819;28;20037;-64
2022/05/16 02:45:20;;;;;;;10.50;4.55;;;;;;;;;;5016047;28;20083;-64
2022/05/16 02:47:46;;;;;;;11.07;4.30;;;;;;;;;;4997596;28;20421;-64
2022/05/16 02:50:13;;;;;;;12.40;5.82;;;;;;;;;;5015348;28;20413;-64
2022/05/16 02:52:39;;;;;;;9.52;4.63;;;;;;;;;;4998330;28;20116;-64
2022/05/16 02:55:05;;;;;;;9.32;4.15;;;;;;;;;;5008542;28;20046;-64
2022/05/16 02:57:32;;;;;;;10.32;4.70;;;;;;;;;;5013995;28;20481;-64
2022/05/16 02:59:59;;;;;;;11.57;4.65;;;;;;;;;;5010227;28;20053;-64
2022/05/16 03:02:25;;;;;;;11.95;4.68;;;;;;;;;;5016823;28;20038;-64
2022/05/16 03:04:51;;;;;;;11.20;4.50;;;;;;;;;;4995069;28;20474;-64
2022/05/16 03:07:18;;;;;;;9.80;4.28;;;;;;;;;;5011640;28;20046;-64
2022/05/16 03:09:44;;;;;;;9.30;4.35;;;;;;;;;;5018201;28;20099;-64
2022/05/16 03:12:10;;;;;;;10.90;3.90;;;;;;;;;;5013636;28;20090;-64
2022/05/16 03:14:36;;;;;;;16.15;4.72;;;;;;;;;;4998014;28;20034;-63
2022/05/16 03:17:03;;;;;;;9.68;4.20;;;;;;;;;;5011518;28;20038;-64
2022/05/16 03:19:30;;;;;;;10.38;4.25;;;;;;;;;;5013487;28;20049;-64
2022/05/16 03:21:56;;;;;;;6.55;3.40;;;;;;;;;;5013778;28;20179;-64
2022/05/16 03:24:23;;;;;;;11.27;4.00;;;;;;;;;;5015019;28;20037;-64
2022/05/16 03:26:49;;;;;;;7.80;3.10;;;;;;;;;;5015185;28;22120;-63
2022/05/16 03:29:16;;;;;;;10.25;4.05;;;;;;;;;;5013888;28;20516;-63
2022/05/16 03:31:43;;;;;;;8.68;3.25;;;;;;;;;;5012870;28;20050;-64
2022/05/16 03:34:10;;;;;;;8.75;3.38;;;;;;;;;;5011011;28;20049;-64
2022/05/16 03:36:36;;;;;;;8.45;3.58;;;;;;;;;;5008138;28;20054;-63
2022/05/16 03:41:48;;;;;;;9.63;3.35;;;;;;;;;;5011905;28;20045;-64
2022/05/16 03:44:14;;;;;;;6.85;3.00;;;;;;;;;;4997725;28;20065;-64
2022/05/16 03:46:40;;;;;;;6.72;3.03;;;;;;;;;;5012463;28;20042;-64
2022/05/16 03:49:06;;;;;;;9.70;3.25;;;;;;;;;;5015708;28;20099;-64
2022/05/16 03:51:33;;;;;;;10.50;2.78;;;;;;;;;;4991627;28;20315;-64
2022/05/16 03:53:59;;;;;;;9.32;3.55;;;;;;;;;;5017241;28;20037;-64
2022/05/16 03:56:26;;;;;;;6.55;3.60;;;;;;;;;;5013043;28;20088;-63
2022/05/16 03:58:53;;;;;;;9.00;3.47;;;;;;;;;;5010616;28;20107;-64
2022/05/16 04:01:19;;;;;;;7.95;3.20;;;;;;;;;;5013149;28;20038;-64
2022/05/16 04:03:46;;;;;;;6.95;2.95;;;;;;;;;;5017877;28;20409;-64
2022/05/16 04:06:13;;;;;;;9.90;4.50;;;;;;;;;;5020134;28;20481;-63
2022/05/16 04:08:40;;;;;;;8.85;3.25;;;;;;;;;;5016853;28;20053;-64
2022/05/16 04:11:07;;;;;;;8.80;2.70;;;;;;;;;;5011598;28;20453;-64
2022/05/16 04:13:33;;;;;;;8.40;3.33;;;;;;;;;;5019152;28;20456;-64
2022/05/16 04:15:59;;;;;;;9.82;2.85;;;;;;;;;;5017174;28;20406;-63
2022/05/16 04:18:26;;;;;;;7.43;2.75;;;;;;;;;;5018672;28;20350;-64
2022/05/16 04:20:52;;;;;;;12.70;3.10;;;;;;;;;;4994630;28;20478;-64
2022/05/16 04:23:18;;;;;;;6.05;2.85;;;;;;;;;;5001211;28;20103;-64
2022/05/16 04:25:45;;;;;;;7.03;2.50;;;;;;;;;;5003094;28;20057;-64
2022/05/16 04:28:11;;;;;;;9.35;2.92;;;;;;;;;;5001020;28;20045;-64
2022/05/16 04:30:38;;;;;;;10.00;2.97;;;;;;;;;;5014338;28;20397;-64
2022/05/16 04:33:05;;;;;;;9.18;3.45;;;;;;;;;;4995899;28;20450;-64
2022/05/16 04:35:31;;;;;;;11.18;3.50;;;;;;;;;;4996698;28;20458;-64
2022/05/16 04:37:57;;;;;;;7.50;2.90;;;;;;;;;;5001455;28;20037;-64
2022/05/16 04:40:23;;;;;;;7.60;2.97;;;;;;;;;;5019348;28;20120;-64
2022/05/16 04:42:51;;;;;;;6.65;2.80;;;;;;;;;;5014761;28;20050;-64
2022/05/16 04:45:19;;;;;;;8.32;3.10;;;;;;;;;;5019982;28;20401;-64
2022/05/16 04:47:46;;;;;;;6.90;2.50;;;;;;;;;;5014804;28;20045;-64
2022/05/16 04:50:14;;;;;;;7.53;2.67;;;;;;;;;;5019113;28;20049;-71
2022/05/16 04:52:40;;;;;;;12.13;2.53;;;;;;;;;;4997429;28;20485;-64
2022/05/16 04:55:07;;;;;;;8.77;3.47;;;;;;;;;;5016265;28;20088;-64
2022/05/16 04:57:33;;;;;;;11.13;3.40;;;;;;;;;;5014428;28;20053;-63
2022/05/16 04:59:59;;;;;;;7.95;3.30;;;;;;;;;;5012064;28;20076;-64
2022/05/16 05:02:25;;;;;;;9.63;3.42;;;;;;;;;;5013063;28;20505;-64
2022/05/16 05:04:52;;;;;;;10.98;3.50;;;;;;;;;;5011153;28;20034;-63
2022/05/16 05:07:18;;;;;;;7.25;2.70;;;;;;;;;;5011732;28;20137;-63
2022/05/16 05:15:15;;;;;;;7.80;2.72;;;;;;;;;;5014671;28;20508;-63
2022/05/16 05:17:41;;;;;;;7.53;3.20;;;;;;;;;;5014053;28;20053;-63
2022/05/16 05:20:13;;;;;;;9.80;2.75;;;;;;;;;;4991205;28;20056;-63
2022/05/16 05:22:41;;;;;;;7.28;2.42;;;;;;;;;;5014841;28;20077;-63
2022/05/16 05:25:09;;;;;;;10.18;2.67;;;;;;;;;;5015196;28;20037;-63
2022/05/16 05:27:35;;;;;;;11.98;3.30;;;;;;;;;;5015972;28;20307;-63
2022/05/16 05:30:01;;;;;;;7.65;2.80;;;;;;;;;;5021776;28;20042;-63
2022/05/16 05:32:28;;;;;;;8.85;2.75;;;;;;;;;;5002430;28;20195;-63
2022/05/16 05:34:54;;;;;;;9.45;2.67;;;;;;;;;;5020024;28;20053;-63
2022/05/16 05:37:20;;;;;;;8.48;2.45;;;;;;;;;;5018429;28;20084;-63
2022/05/16 05:39:46;;;;;;;7.88;2.50;;;;;;;;;;5018578;28;20171;-63
2022/05/16 05:42:12;;;;;;;6.82;2.70;;;;;;;;;;5015164;28;20076;-63
2022/05/16 05:44:38;;;;;;;9.95;3.00;;;;;;;;;;5012590;28;20494;-64
2022/05/16 05:47:04;;;;;;;16.52;3.00;;;;;;;;;;4996324;28;21566;-63
2022/05/16 05:49:31;;;;;;;8.98;3.60;;;;;;;;;;5012192;28;20042;-63
2022/05/16 05:51:59;;;;;;;10.43;3.25;;;;;;;;;;5013583;28;20446;-63
2022/05/16 05:54:25;;;;;;;8.50;2.97;;;;;;;;;;5015762;28;20053;-63
2022/05/16 05:56:51;;;;;;;8.90;2.95;;;;;;;;;;5010085;28;20064;-63
2022/05/16 05:59:17;;;;;;;8.43;3.28;;;;;;;;;;5010681;28;20486;-63
2022/05/16 06:01:43;;;;;;;21.45;4.57;;;;;;;;;;5012919;28;20053;-64
2022/05/16 06:04:10;;;;;;;10.45;2.85;;;;;;;;;;4998442;28;20042;-62
2022/05/16 06:06:36;;;;;;;12.15;3.50;;;;;;;;;;5011441;28;20060;-63
2022/05/16 06:09:02;;;;;;;9.45;2.67;;;;;;;;;;4998088;28;20046;-77
2022/05/16 06:11:28;;;;;;;9.95;3.10;;;;;;;;;;5002476;28;20054;-63
2022/05/16 06:13:56;;;;;;;7.78;2.72;;;;;;;;;;5021242;28;20069;-63
2022/05/16 06:16:22;;;;;;;11.63;3.00;;;;;;;;;;4996246;28;20522;-63
2022/05/16 06:18:49;;;;;;;15.90;3.78;;;;;;;;;;5014637;28;20544;-63
2022/05/16 06:21:15;;;;;;;9.88;3.25;;;;;;;;;;5012198;28;20045;-63
2022/05/16 06:23:41;;;;;;;10.55;2.78;;;;;;;;;;5009401;28;20092;-63
2022/05/16 06:26:07;;;;;;;17.40;2.95;;;;;;;;;;5010342;28;20042;-67
2022/05/16 06:28:37;;;;;;;7.38;3.00;;;;;;;;;;5012050;28;20088;-64
2022/05/16 06:31:03;;;;;;;7.30;2.75;;;;;;;;;;5016728;28;20503;-64
2022/05/16 06:33:30;;;;;;;8.45;2.65;;;;;;;;;;5012530;28;20525;-63
2022/05/16 06:35:56;;;;;;;8.68;2.65;;;;;;;;;;5012438;28;20113;-64
2022/05/16 06:38:25;;;;;;;8.65;2.95;;;;;;;;;;5011581;28;20038;-66
2022/05/16 06:40:51;;;;;;;8.13;3.10;;;;;;;;;;5013549;28;20057;-63
2022/05/16 06:43:18;;;;;;;10.40;3.25;;;;;;;;;;5021121;28;20045;-64
2022/05/16 06:45:45;;;;;;;10.55;2.92;;;;;;;;;;5013467;28;20072;-66
2022/05/16 06:48:11;;;;;;;10.27;3.58;;;;;;;;;;5013468;28;20042;-66
2022/05/16 06:50:38;;;;;;;9.38;3.08;;;;;;;;;;4997588;28;20049;-66
2022/05/16 06:53:05;;;;;;;13.25;3.47;;;;;;;;;;5007645;28;20052;-66
2022/05/16 06:55:31;;;;;;;11.35;3.15;;;;;;;;;;4997349;28;20124;-67
2022/05/16 06:57:57;;;;;;;9.70;3.03;;;;;;;;;;5015991;28;20381;-63
2022/05/16 07:00:24;;;;;;;15.85;3.38;;;;;;;;;;5014992;28;20054;-63
2022/05/16 07:02:50;;;;;;;13.18;3.50;;;;;;;;;;5010559;28;20046;-64
2022/05/16 07:05:16;;;;;;;9.05;2.78;;;;;;;;;;5017532;28;20131;-64
2022/05/16 07:07:43;;;;;;;8.82;3.17;;;;;;;;;;5013222;28;20508;-64
2022/05/16 07:10:09;;;;;;;11.23;2.97;;;;;;;;;;5011300;28;20057;-64
2022/05/16 07:12:35;;;;;;;7.88;3.33;;;;;;;;;;5015240;28;20045;-64
2022/05/16 07:15:01;;;;;;;27.70;5.45;;;;;;;;;;5012069;28;20521;-64
2022/05/16 07:17:28;;;;;;;12.45;3.30;;;;;;;;;;5004823;28;20125;-64
2022/05/16 07:19:54;;;;;;;12.98;3.88;;;;;;;;;;5019628;28;20175;-64
2022/05/16 07:22:22;;;;;;;11.32;2.80;;;;;;;;;;5014849;28;20103;-63
2022/05/16 07:24:48;;;;;;;12.18;3.40;;;;;;;;;;5017275;28;20034;-63
2022/05/16 07:30:00;;;;;;;11.30;3.72;;;;;;;;;;5012848;28;20038;-64
2022/05/16 07:32:33;;;;;;;8.80;2.97;;;;;;;;;;5011593;28;20038;-64
2022/05/16 07:35:01;;;;;;;11.43;3.50;;;;;;;;;;5010619;28;20050;-64
2022/05/16 07:37:27;;;;;;;9.38;2.97;;;;;;;;;;5012262;28;20486;-63
2022/05/16 07:39:53;;;;;;;10.23;3.47;;;;;;;;;;5018056;28;20046;-64
2022/05/16 07:42:19;;;;;;;11.27;3.33;;;;;;;;;;4996230;28;20057;-64
2022/05/16 07:44:47;;;;;;;13.15;3.42;;;;;;;;;;5013152;28;20049;-64
2022/05/16 07:47:13;;;;;;;9.52;2.92;;;;;;;;;;5010791;28;20053;-64
2022/05/16 07:49:40;;;;;;;8.75;2.58;;;;;;;;;;5010911;28;20441;-64
2022/05/16 07:52:06;;;;;;;12.13;3.38;;;;;;;;;;5010775;28;20175;-63
2022/05/16 07:54:34;;;;;;;11.63;3.47;;;;;;;;;;5013315;28;20113;-64
2022/05/16 07:57:02;;;;;;;16.58;3.65;;;;;;;;;;5014795;28;20497;-64
2022/05/16 07:59:29;;;;;;;11.27;3.53;;;;;;;;;;5016011;28;20053;-64
2022/05/16 08:01:55;;;;;;;10.32;2.88;;;;;;;;;;5017655;28;20124;-63
2022/05/16 08:04:21;;;;;;;9.65;2.80;;;;;;;;;;5017747;28;20433;-63
2022/05/16 08:06:48;;;;;;;11.77;3.25;;;;;;;;;;5016748;28;20053;-63
2022/05/16 08:11:59;;;;;;;13.00;3.20;;;;;;;;;;5017789;28;20068;-64
2022/05/16 08:14:26;;;;;;;12.60;3.67;;;;;;;;;;5016520;28;20084;-64
2022/05/16 08:16:52;;;;;;;9.77;3.63;;;;;;;;;;5013849;28;20049;-63
2022/05/16 08:19:19;;;;;;;11.27;3.00;;;;;;;;;;5016084;28;20038;-64
2022/05/16 08:21:45;;;;;;;15.25;4.00;;;;;;;;;;5018926;28;20132;-64
2022/05/16 08:24:11;;;;;;;12.85;3.60;;;;;;;;;;5016105;28;20394;-63
2022/05/16 08:26:38;;;;;;;11.23;3.75;;;;;;;;;;5021865;28;20461;-63
2022/05/16 08:29:05;;;;;;;10.63;3.35;;;;;;;;;;5017096;28;20049;-63
2022/05/16 08:31:31;;;;;;;10.77;3.20;;;;;;;;;;5019643;28;20096;-63
2022/05/16 08:33:57;;;;;;;14.05;4.00;;;;;;;;;;5019020;28;20041;-64
2022/05/16 08:41:56;;;;;;;11.48;3.33;;;;;;;;;;5014930;28;21678;-63
2022/05/16 08:44:27;;;;;;;15.73;4.40;;;;;;;;;;5002749;28;20128;-63
2022/05/16 08:47:07;;;;;;;14.82;3.75;;;;;;;;;;5002627;28;20052;-63
2022/05/16 08:49:43;;;;;;;12.30;3.45;;;;;;;;;;5007728;28;20049;-63
2022/05/16 08:52:13;;;;;;;9.68;3.35;;;;;;;;;;5021585;28;20057;-63
2022/05/16 08:54:42;;;;;;;12.05;3.53;;;;;;;;;;5025016;28;20125;-63
2022/05/16 08:57:10;;;;;;;8.90;3.17;;;;;;;;;;5006227;28;20072;-64
2022/05/16 08:59:39;;;;;;;15.68;4.30;;;;;;;;;;5024167;28;20493;-63
2022/05/16 09:02:09;;;;;;;11.25;3.65;;;;;;;;;;5018908;28;20130;-63
2022/05/16 09:04:42;;;;;;;10.65;3.47;;;;;;;;;;5022008;28;20777;-64
2022/05/16 09:07:17;;;;;;;17.38;4.03;;;;;;;;;;5016560;28;20042;-63
2022/05/16 09:09:46;;;;;;;10.55;2.95;;;;;;;;;;5020725;28;20129;-63
2022/05/16 09:12:16;;;;;;;14.32;3.53;;;;;;;;;;5021698;28;20042;-64
2022/05/16 09:14:42;;;;;;;8.63;3.33;;;;;;;;;;5018583;28;20812;-64
2022/05/16 09:17:13;;;;;;;12.57;3.60;;;;;;;;;;5017937;28;20044;-63
2022/05/16 09:19:45;;;;;;;10.55;3.80;;;;;;;;;;5014659;28;20042;-63
2022/05/16 09:22:25;;;;;;;8.00;3.33;;;;;;;;;;5019749;28;20129;-63
2022/05/16 09:24:52;;;;;;;14.93;3.10;;;;;;;;;;5014827;28;20053;-63
2022/05/16 09:30:19;;;;;;;9.90;3.33;;;;;;;;;;5002370;28;20061;-63
2022/05/16 09:32:55;;;;;;;13.77;3.40;;;;;;;;;;5021560;28;20049;-64
2022/05/16 09:35:28;;;;;;;10.88;3.30;;;;;;;;;;4995051;28;20137;-64
2022/05/16 09:37:56;;;;;;;10.77;3.05;;;;;;;;;;4996334;28;20050;-63
2022/05/16 09:40:25;;;;;;;9.68;3.20;;;;;;;;;;4997234;28;20124;-64
2022/05/16 09:42:52;;;;;;;8.45;2.88;;;;;;;;;;5004332;28;20053;-64
2022/05/16 09:45:23;;;;;;;9.63;3.20;;;;;;;;;;5001395;28;20445;-64
2022/05/16 09:47:49;;;;;;;9.23;2.90;;;;;;;;;;5003054;28;20042;-64
2022/05/16 09:50:21;;;;;;;11.60;3.42;;;;;;;;;;4985983;28;20050;-63
2022/05/16 09:52:48;;;;;;;8.02;3.03;;;;;;;;;;4994171;28;20058;-64
2022/05/16 09:55:24;;;;;;;10.13;3.33;;;;;;;;;;4998873;28;20108;-64
2022/05/16 09:57:55;;;;;;;12.23;3.65;;;;;;;;;;5002346;28;20065;-64
2022/05/16 10:00:22;;;;;;;12.55;3.38;;;;;;;;;;5002658;28;20128;-64
2022/05/16 10:02:55;;;;;;;10.98;3.75;;;;;;;;;;4996110;28;20487;-64
2022/05/16 10:05:25;;;;;;;8.02;2.67;;;;;;;;;;4994694;28;20042;-64
2022/05/16 10:07:53;;;;;;;9.95;3.65;;;;;;;;;;4999116;28;20054;-64
2022/05/16 10:10:21;;;;;;;10.80;3.53;;;;;;;;;;4993088;28;20046;-64
2022/05/16 10:12:48;;;;;;;7.63;2.83;;;;;;;;;;4998375;28;20061;-64
2022/05/16 10:15:14;;;;;;;14.80;3.30;;;;;;;;;;4995780;28;20237;-64
2022/05/16 10:17:42;;;;;;;16.17;4.20;;;;;;;;;;4996632;28;20141;-64
2022/05/16 10:20:10;;;;;;;14.05;4.07;;;;;;;;;;4996136;28;20062;-64
2022/05/16 10:22:37;;;;;;;12.77;3.63;;;;;;;;;;4994006;28;20125;-64
2022/05/16 10:25:06;;;;;;;11.32;3.50;;;;;;;;;;4996424;28;20057;-64
2022/05/16 10:27:35;;;;;;;14.55;3.58;;;;;;;;;;4993227;28;20173;-64
2022/05/16 10:30:04;;;;;;;18.25;4.05;;;;;;;;;;4993643;28;20038;-64
2022/05/16 10:35:20;;;;;;;10.82;3.38;;;;;;;;;;5015639;28;20456;-64
2022/05/16 10:37:47;;;;;;;14.55;3.80;;;;;;;;;;5016062;28;20109;-63
2022/05/16 10:40:23;;;;;;;12.55;3.75;;;;;;;;;;5013220;28;20046;-63
2022/05/16 10:42:52;;;;;;;14.90;3.28;;;;;;;;;;5012219;28;20378;-64
2022/05/16 10:45:20;;;;;;;10.68;3.90;;;;;;;;;;5011273;28;20050;-63
2022/05/16 10:47:48;;;;;;;8.90;3.63;;;;;;;;;;5014706;28;20053;-63
2022/05/16 10:50:21;;;;;;;12.38;3.47;;;;;;;;;;5021378;28;20057;-63
2022/05/16 10:52:51;;;;;;;13.98;3.55;;;;;;;;;;5016327;28;20052;-64
2022/05/16 10:55:17;;;;;;;10.50;3.10;;;;;;;;;;5020599;28;20111;-63
2022/05/16 10:58:00;;;;;;;12.90;3.47;;;;;;;;;;5023466;28;20056;-63
2022/05/16 11:00:35;;;;;;;13.90;3.55;;;;;;;;;;5019679;28;20394;-63
2022/05/16 11:03:11;;;;;;;12.73;3.45;;;;;;;;;;5018055;28;20123;-64
2022/05/16 11:05:42;;;;;;;18.35;4.35;;;;;;;;;;5014412;28;20046;-63
2022/05/16 11:08:18;;;;;;;13.38;3.25;;;;;;;;;;5017437;28;20050;-64
2022/05/16 11:10:50;;;;;;;11.38;4.00;;;;;;;;;;5023904;28;20107;-64
2022/05/16 11:13:25;;;;;;;7.43;2.92;;;;;;;;;;5019772;28;20125;-63
2022/05/16 11:15:56;;;;;;;11.52;2.95;;;;;;;;;;5018234;28;20060;-64
2022/05/16 11:18:28;;;;;;;11.35;2.92;;;;;;;;;;5020780;28;20046;-64
2022/05/16 11:20:58;;;;;;;13.48;4.20;;;;;;;;;;5011955;28;20045;-64
2022/05/16 11:23:28;;;;;;;13.18;3.65;;;;;;;;;;5017809;28;20112;-64
2022/05/16 11:26:12;;;;;;;12.23;3.80;;;;;;;;;;5018948;28;20504;-64
2022/05/16 11:29:16;;;;;;;14.07;3.80;;;;;;;;;;5016304;28;20095;-64
2022/05/16 11:31:29;;;;;;;16.00;4.30;;;;;;;;;;4999985;28;20045;-64
2022/05/16 11:33:56;;;;;;;13.20;3.90;;;;;;;;;;5021080;28;20101;-64
2022/05/16 11:36:22;;;;;;;15.60;4.30;;;;;;;;;;5015797;28;20165;-64
2022/05/16 11:38:59;;;;;;;12.18;4.25;;;;;;;;;;5015587;28;20147;-64
2022/05/16 11:41:39;;;;;;;15.93;4.35;;;;;;;;;;5006504;28;20208;-64
2022/05/16 11:44:20;;;;;;;12.40;3.92;;;;;;;;;;5021269;28;20872;-64
2022/05/16 11:46:53;;;;;;;15.00;4.85;;;;;;;;;;5021069;28;20512;-64
2022/05/16 11:49:19;;;;;;;11.52;3.45;;;;;;;;;;5020355;28;20037;-64
2022/05/16 11:51:52;;;;;;;13.70;4.47;;;;;;;;;;5021558;28;20100;-64
2022/05/16 11:54:22;;;;;;;16.77;5.15;;;;;;;;;;5018727;28;20072;-64
2022/05/16 12:02:33;;;;;;;12.00;4.95;;;;;;;;;;5015230;28;20062;-64
2022/05/16 12:05:02;;;;;;;16.10;4.65;;;;;;;;;;5019026;28;20393;-64
2022/05/16 12:07:39;;;;;;;12.80;4.78;;;;;;;;;;5021331;28;20092;-64
2022/05/16 12:10:08;;;;;;;13.68;4.75;;;;;;;;;;5001016;28;20539;-64
2022/05/16 12:12:37;;;;;;;13.82;4.25;;;;;;;;;;4997466;28;20042;-64
2022/05/16 12:15:13;;;;;;;13.95;5.80;;;;;;;;;;5021024;28;20116;-64
2022/05/16 12:17:49;;;;;;;15.45;4.93;;;;;;;;;;5013248;28;20049;-64
2022/05/16 12:20:15;;;;;;;15.07;5.78;;;;;;;;;;5015773;28;20086;-64
2022/05/16 12:22:43;;;;;;;19.30;5.85;;;;;;;;;;5017640;28;20046;-64
2022/05/16 12:25:11;;;;;;;15.32;5.53;;;;;;;;;;5017059;28;20226;-64
2022/05/16 12:27:39;;;;;;;13.30;6.25;;;;;;;;;;5022662;28;20046;-64
2022/05/16 12:30:10;;;;;;;13.38;5.65;;;;;;;;;;5003807;28;20445;-64
2022/05/16 12:32:37;;;;;;;12.90;6.22;;;;;;;;;;5023275;28;20072;-64
2022/05/16 12:35:08;;;;;;;14.48;5.80;;;;;;;;;;5018581;28;20104;-64
2022/05/16 12:37:36;;;;;;;19.35;6.50;;;;;;;;;;5021780;28;20492;-64
2022/05/16 12:40:05;;;;;;;17.58;6.72;;;;;;;;;;5018698;28;20077;-64
2022/05/16 12:42:32;;;;;;;17.70;7.53;;;;;;;;;;5018847;28;20103;-64
2022/05/16 12:45:02;;;;;;;16.08;6.28;;;;;;;;;;5023489;28;20049;-64
2022/05/16 12:47:47;;;;;;;15.55;7.25;;;;;;;;;;5019962;28;20068;-64
2022/05/16 12:50:21;;;;;;;15.10;6.70;;;;;;;;;;5018762;28;20041;-64
2022/05/16 12:53:06;;;;;;;16.23;7.50;;;;;;;;;;5019799;28;20050;-64
2022/05/16 12:55:48;;;;;;;17.15;7.55;;;;;;;;;;5023507;28;20041;-65
2022/05/16 12:58:20;;;;;;;15.55;7.18;;;;;;;;;;5017348;28;20053;-64
2022/05/16 13:00:53;;;;;;;16.40;8.40;;;;;;;;;;5021392;28;20125;-64
2022/05/16 13:03:23;;;;;;;12.07;6.30;;;;;;;;;;5020337;28;20096;-64
2022/05/16 13:05:55;;;;;;;16.92;8.15;;;;;;;;;;5021984;28;20478;-64
2022/05/16 13:08:22;;;;;;;18.95;7.97;;;;;;;;;;5026524;28;20033;-64
2022/05/16 13:10:57;;;;;;;14.88;8.27;;;;;;;;;;5025175;28;20049;-64
2022/05/16 13:13:34;;;;;;;13.27;8.27;;;;;;;;;;5015950;28;20041;-64
2022/05/16 13:16:04;;;;;;;15.82;9.82;;;;;;;;;;5020288;28;20081;-64
2022/05/16 13:18:32;;;;;;;19.02;10.45;;;;;;;;;;5021482;28;20068;-64
2022/05/16 13:21:05;;;;;;;19.88;10.55;;;;;;;;;;5017033;28;20553;-64
2022/05/16 13:23:31;;;;;;;20.30;10.25;;;;;;;;;;5016979;28;20153;-64
2022/05/16 13:31:39;;;;;;;18.05;9.98;;;;;;;;;;5017626;28;20050;-64
2022/05/16 13:34:06;;;;;;;20.85;10.73;;;;;;;;;;5012803;28;20048;-64
2022/05/16 13:36:32;;;;;;;16.25;11.30;;;;;;;;;;5016594;28;20430;-64
2022/05/16 13:39:00;;;;;;;17.75;10.98;;;;;;;;;;5024989;28;20049;-64
2022/05/16 13:41:28;;;;;;;15.98;10.52;;;;;;;;;;5012639;28;20038;-64
2022/05/16 13:43:55;;;;;;;19.40;12.35;;;;;;;;;;5015259;28;20060;-64
2022/05/16 13:46:22;;;;;;;18.30;11.05;;;;;;;;;;5015469;28;20140;-64
2022/05/16 13:48:56;;;;;;;17.20;9.27;;;;;;;;;;5015519;28;20049;-64
2022/05/16 13:51:23;;;;;;;13.88;9.20;;;;;;;;;;5015132;28;20045;-64
2022/05/16 13:53:49;;;;;;;16.90;8.60;;;;;;;;;;5010207;28;20053;-64
2022/05/16 13:56:15;;;;;;;11.57;8.40;;;;;;;;;;5023092;28;20425;-64
2022/05/16 13:58:41;;;;;;;16.20;9.77;;;;;;;;;;5000229;28;20097;-65
2022/05/16 14:01:12;;;;;;;15.43;8.40;;;;;;;;;;4999976;28;20053;-64
2022/05/16 14:03:39;;;;;;;15.38;8.40;;;;;;;;;;5014277;28;20046;-71
2022/05/16 14:06:05;;;;;;;15.75;7.38;;;;;;;;;;5006668;28;20034;-64
2022/05/16 14:08:38;;;;;;;19.88;9.70;;;;;;;;;;5013295;28;20419;-65
2022/05/16 14:11:05;;;;;;;13.23;7.78;;;;;;;;;;5010856;28;20050;-64
2022/05/16 14:13:31;;;;;;;11.05;7.90;;;;;;;;;;5015657;28;20033;-64
2022/05/16 14:16:05;;;;;;;13.43;5.95;;;;;;;;;;5016713;28;20029;-64
2022/05/16 14:18:32;;;;;;;15.50;7.18;;;;;;;;;;5018042;28;20052;-64
2022/05/16 14:21:16;;;;;;;12.65;7.72;;;;;;;;;;5014218;28;20037;-64
2022/05/16 14:23:44;;;;;;;15.98;9.10;;;;;;;;;;5012343;28;20432;-64
2022/05/16 14:26:13;;;;;;;12.35;9.15;;;;;;;;;;5011459;28;20033;-64
2022/05/16 14:28:44;;;;;;;15.15;10.20;;;;;;;;;;5021665;28;20049;-64
2022/05/16 14:31:19;;;;;;;16.27;10.43;;;;;;;;;;5017072;28;20056;-64
2022/05/16 14:33:52;;;;;;;19.40;9.80;;;;;;;;;;5000671;28;20140;-69
2022/05/16 14:36:24;;;;;;;18.55;10.02;;;;;;;;;;5007290;28;20045;-65
2022/05/16 14:38:51;;;;;;;18.60;10.90;;;;;;;;;;5011459;28;20050;-64
2022/05/16 14:41:22;;;;;;;15.10;10.13;;;;;;;;;;5017940;28;20449;-64
2022/05/16 14:43:56;;;;;;;18.30;11.43;;;;;;;;;;5019652;28;20132;-64
2022/05/16 14:49:07;;;;;;;21.90;11.05;;;;;;;;;;5015136;28;20073;-64
2022/05/16 14:51:34;;;;;;;21.33;11.75;;;;;;;;;;5004457;28;20046;-64
2022/05/16 14:54:01;;;;;;;26.10;13.57;;;;;;;;;;5021167;28;20089;-64
2022/05/16 14:56:32;;;;;;;25.98;12.80;;;;;;;;;;4989782;28;20046;-64
2022/05/16 14:58:58;;;;;;;23.17;13.10;;;;;;;;;;5014901;28;20409;-64
2022/05/16 15:04:09;;;;;;;27.88;14.15;;;;;;;;;;5020327;28;20098;-63
2022/05/16 15:06:39;;;;;;;21.65;13.00;;;;;;;;;;5021219;28;20038;-64
2022/05/16 15:09:07;;;;;;;24.63;13.27;;;;;;;;;;5020713;28;20046;-64
2022/05/16 15:11:37;;;;;;;23.42;13.40;;;;;;;;;;5013693;28;20037;-64
2022/05/16 15:14:04;;;;;;;26.50;14.05;;;;;;;;;;5015353;28;20049;-64
2022/05/16 15:16:30;;;;;;;24.13;13.80;;;;;;;;;;5010393;28;20045;-64
2022/05/16 15:18:57;;;;;;;22.23;12.85;;;;;;;;;;5016412;28;20064;-64
2022/05/16 15:21:24;;;;;;;20.38;13.27;;;;;;;;;;5018784;28;20033;-64
2022/05/16 15:23:51;;;;;;;22.42;12.88;;;;;;;;;;5018822;28;20047;-64
2022/05/16 15:26:17;;;;;;;28.98;14.88;;;;;;;;;;5015476;28;20042;-64